sensor_id;sensor_type;location;lat;lon;timestamp;P1;durP1;ratioP1;P2;durP2;ratioP2
41837;SDS011;27511;52.042;5.178;2024-03-23T00:55:12;29.85;;;9.45;;
41837;SDS011;27511;52.042;5.178;2024-03-23T00:57:38;24.40;;;11.68;;
41837;SDS011;27511;52.042;5.178;2024-03-23T01:00:04;25.10;;;9.57;;
41837;SDS011;27511;52.042;5.178;2024-03-23T01:02:31;30.10;;;10.15;;
41837;SDS011;27511;52.042;5.178;2024-03-23T01:04:57;24.08;;;10.48;;
41837;SDS011;27511;52.042;5.178;2024-03-23T01:07:23;20.80;;;8.98;;
41837;SDS011;27511;52.042;5.178;2024-03-23T01:09:48;22.30;;;9.00;;
41837;SDS011;27511;52.042;5.178;2024-03-23T01:12:14;20.25;;;8.85;;
41837;SDS011;27511;52.042;5.178;2024-03-23T01:14:40;25.45;;;9.07;;
41837;SDS011;27511;52.042;5.178;2024-03-23T01:17:05;27.67;;;9.65;;
41837;SDS011;27511;52.042;5.178;2024-03-23T01:19:31;18.55;;;8.70;;
41837;SDS011;27511;52.042;5.178;2024-03-23T01:21:56;22.45;;;8.60;;
41837;SDS011;27511;52.042;5.178;2024-03-23T01:24:22;25.15;;;9.65;;
41837;SDS011;27511;52.042;5.178;2024-03-23T01:26:47;19.50;;;8.80;;
41837;SDS011;27511;52.042;5.178;2024-03-23T01:29:13;21.55;;;9.27;;
41837;SDS011;27511;52.042;5.178;2024-03-23T01:31:38;19.77;;;8.35;;
41837;SDS011;27511;52.042;5.178;2024-03-23T01:34:04;29.23;;;8.73;;
41837;SDS011;27511;52.042;5.178;2024-03-23T01:36:29;24.02;;;8.48;;
41837;SDS011;27511;52.042;5.178;2024-03-23T01:38:55;21.00;;;7.18;;
41837;SDS011;27511;52.042;5.178;2024-03-23T01:41:20;23.33;;;8.20;;
41837;SDS011;27511;52.042;5.178;2024-03-23T01:43:46;14.40;;;7.45;;
41837;SDS011;27511;52.042;5.178;2024-03-23T01:46:12;26.60;;;9.25;;
41837;SDS011;27511;52.042;5.178;2024-03-23T01:48:38;16.38;;;7.93;;
41837;SDS011;27511;52.042;5.178;2024-03-23T01:51:04;20.55;;;7.75;;
41837;SDS011;27511;52.042;5.178;2024-03-23T01:53:30;20.70;;;7.47;;
41837;SDS011;27511;52.042;5.178;2024-03-23T01:55:56;18.45;;;7.47;;
41837;SDS011;27511;52.042;5.178;2024-03-23T01:58:22;27.83;;;7.82;;
41837;SDS011;27511;52.042;5.178;2024-03-23T02:00:47;25.83;;;8.35;;
41837;SDS011;27511;52.042;5.178;2024-03-23T02:03:34;22.33;;;7.78;;
41837;SDS011;27511;52.042;5.178;2024-03-23T02:05:59;19.80;;;8.25;;
41837;SDS011;27511;52.042;5.178;2024-03-23T02:08:24;18.33;;;7.32;;
41837;SDS011;27511;52.042;5.178;2024-03-23T02:10:50;23.55;;;8.57;;
41837;SDS011;27511;52.042;5.178;2024-03-23T02:13:17;17.40;;;7.55;;
41837;SDS011;27511;52.042;5.178;2024-03-23T02:15:43;16.20;;;7.28;;
41837;SDS011;27511;52.042;5.178;2024-03-23T02:18:09;24.33;;;7.95;;
41837;SDS011;27511;52.042;5.178;2024-03-23T02:20:36;24.45;;;7.97;;
41837;SDS011;27511;52.042;5.178;2024-03-23T02:23:02;18.85;;;6.95;;
41837;SDS011;27511;52.042;5.178;2024-03-23T02:25:28;22.60;;;7.95;;
41837;SDS011;27511;52.042;5.178;2024-03-23T02:27:53;19.70;;;7.28;;
41837;SDS011;27511;52.042;5.178;2024-03-23T02:30:21;18.40;;;7.15;;
41837;SDS011;27511;52.042;5.178;2024-03-23T02:32:46;18.00;;;8.07;;
41837;SDS011;27511;52.042;5.178;2024-03-23T02:35:12;19.02;;;7.10;;
41837;SDS011;27511;52.042;5.178;2024-03-23T02:37:37;18.55;;;6.10;;
41837;SDS011;27511;52.042;5.178;2024-03-23T02:40:03;13.77;;;5.65;;
41837;SDS011;27511;52.042;5.178;2024-03-23T02:42:30;15.50;;;6.10;;
41837;SDS011;27511;52.042;5.178;2024-03-23T02:44:55;18.20;;;6.05;;
41837;SDS011;27511;52.042;5.178;2024-03-23T02:47:22;18.25;;;5.03;;
41837;SDS011;27511;52.042;5.178;2024-03-23T02:49:47;20.08;;;5.78;;
41837;SDS011;27511;52.042;5.178;2024-03-23T02:52:13;13.75;;;4.82;;
41837;SDS011;27511;52.042;5.178;2024-03-23T02:54:38;14.52;;;4.20;;
41837;SDS011;27511;52.042;5.178;2024-03-23T02:57:04;13.60;;;4.93;;
41837;SDS011;27511;52.042;5.178;2024-03-23T02:59:29;9.25;;;3.92;;
41837;SDS011;27511;52.042;5.178;2024-03-23T03:01:55;19.30;;;5.03;;
41837;SDS011;27511;52.042;5.178;2024-03-23T03:04:21;15.65;;;4.82;;
41837;SDS011;27511;52.042;5.178;2024-03-23T03:06:46;17.88;;;4.30;;
41837;SDS011;27511;52.042;5.178;2024-03-23T03:09:12;14.75;;;4.05;;
41837;SDS011;27511;52.042;5.178;2024-03-23T03:11:38;10.65;;;4.30;;
41837;SDS011;27511;52.042;5.178;2024-03-23T03:14:03;20.75;;;4.35;;
41837;SDS011;27511;52.042;5.178;2024-03-23T03:16:29;13.90;;;4.82;;
41837;SDS011;27511;52.042;5.178;2024-03-23T03:18:54;9.70;;;3.75;;
41837;SDS011;27511;52.042;5.178;2024-03-23T03:21:20;15.30;;;4.47;;
41837;SDS011;27511;52.042;5.178;2024-03-23T03:23:46;6.40;;;3.20;;
41837;SDS011;27511;52.042;5.178;2024-03-23T03:26:15;15.10;;;4.30;;
41837;SDS011;27511;52.042;5.178;2024-03-23T03:28:43;9.38;;;3.60;;
41837;SDS011;27511;52.042;5.178;2024-03-23T03:31:13;10.80;;;4.03;;
41837;SDS011;27511;52.042;5.178;2024-03-23T03:33:40;10.85;;;3.38;;
41837;SDS011;27511;52.042;5.178;2024-03-23T03:36:05;9.32;;;3.40;;
41837;SDS011;27511;52.042;5.178;2024-03-23T03:38:31;7.68;;;3.53;;
41837;SDS011;27511;52.042;5.178;2024-03-23T03:40:56;8.18;;;3.25;;
41837;SDS011;27511;52.042;5.178;2024-03-23T03:43:23;10.18;;;3.45;;
41837;SDS011;27511;52.042;5.178;2024-03-23T03:45:53;7.55;;;3.75;;
41837;SDS011;27511;52.042;5.178;2024-03-23T03:48:19;6.93;;;3.42;;
41837;SDS011;27511;52.042;5.178;2024-03-23T03:50:45;11.55;;;3.20;;
41837;SDS011;27511;52.042;5.178;2024-03-23T03:53:11;13.25;;;2.70;;
41837;SDS011;27511;52.042;5.178;2024-03-23T03:55:36;11.05;;;3.10;;
41837;SDS011;27511;52.042;5.178;2024-03-23T03:58:02;8.32;;;2.53;;
41837;SDS011;27511;52.042;5.178;2024-03-23T04:00:27;10.65;;;3.03;;
41837;SDS011;27511;52.042;5.178;2024-03-23T04:02:53;13.48;;;3.33;;
41837;SDS011;27511;52.042;5.178;2024-03-23T04:05:18;7.53;;;2.55;;
41837;SDS011;27511;52.042;5.178;2024-03-23T04:07:45;13.55;;;3.10;;
41837;SDS011;27511;52.042;5.178;2024-03-23T04:10:10;9.13;;;3.28;;
41837;SDS011;27511;52.042;5.178;2024-03-23T04:12:36;8.88;;;3.22;;
41837;SDS011;27511;52.042;5.178;2024-03-23T04:15:02;11.88;;;2.47;;
41837;SDS011;27511;52.042;5.178;2024-03-23T04:17:29;9.68;;;2.75;;
41837;SDS011;27511;52.042;5.178;2024-03-23T04:19:58;11.27;;;2.53;;
41837;SDS011;27511;52.042;5.178;2024-03-23T04:22:23;7.60;;;2.50;;
41837;SDS011;27511;52.042;5.178;2024-03-23T04:24:51;5.95;;;2.55;;
41837;SDS011;27511;52.042;5.178;2024-03-23T04:27:20;6.22;;;2.33;;
41837;SDS011;27511;52.042;5.178;2024-03-23T04:29:46;8.93;;;2.13;;
41837;SDS011;27511;52.042;5.178;2024-03-23T04:32:15;4.45;;;2.10;;
41837;SDS011;27511;52.042;5.178;2024-03-23T04:34:41;11.43;;;2.60;;
41837;SDS011;27511;52.042;5.178;2024-03-23T04:37:09;6.28;;;1.60;;
41837;SDS011;27511;52.042;5.178;2024-03-23T04:39:38;8.18;;;2.13;;
41837;SDS011;27511;52.042;5.178;2024-03-23T04:42:04;6.97;;;1.85;;
41837;SDS011;27511;52.042;5.178;2024-03-23T04:44:30;7.93;;;2.15;;
41837;SDS011;27511;52.042;5.178;2024-03-23T04:46:56;5.88;;;2.13;;
41837;SDS011;27511;52.042;5.178;2024-03-23T04:49:22;9.30;;;2.42;;
41837;SDS011;27511;52.042;5.178;2024-03-23T04:51:48;8.25;;;2.25;;
41837;SDS011;27511;52.042;5.178;2024-03-23T04:54:13;9.05;;;1.80;;
41837;SDS011;27511;52.042;5.178;2024-03-23T04:56:39;3.90;;;1.35;;
41837;SDS011;27511;52.042;5.178;2024-03-23T04:59:05;9.98;;;2.03;;
41837;SDS011;27511;52.042;5.178;2024-03-23T05:01:31;6.05;;;2.05;;
41837;SDS011;27511;52.042;5.178;2024-03-23T05:03:57;9.48;;;2.58;;
41837;SDS011;27511;52.042;5.178;2024-03-23T05:06:23;3.67;;;1.80;;
41837;SDS011;27511;52.042;5.178;2024-03-23T05:08:49;11.35;;;2.78;;
41837;SDS011;27511;52.042;5.178;2024-03-23T05:11:14;10.77;;;2.25;;
41837;SDS011;27511;52.042;5.178;2024-03-23T05:13:40;8.95;;;2.17;;
41837;SDS011;27511;52.042;5.178;2024-03-23T05:16:06;5.22;;;1.33;;
41837;SDS011;27511;52.042;5.178;2024-03-23T05:18:33;6.10;;;1.80;;
41837;SDS011;27511;52.042;5.178;2024-03-23T05:20:59;12.18;;;2.42;;
41837;SDS011;27511;52.042;5.178;2024-03-23T05:23:25;7.65;;;2.05;;
41837;SDS011;27511;52.042;5.178;2024-03-23T05:25:51;5.57;;;1.42;;
41837;SDS011;27511;52.042;5.178;2024-03-23T05:28:17;9.40;;;1.40;;
41837;SDS011;27511;52.042;5.178;2024-03-23T05:30:43;7.85;;;1.80;;
41837;SDS011;27511;52.042;5.178;2024-03-23T05:33:09;8.02;;;1.85;;
41837;SDS011;27511;52.042;5.178;2024-03-23T05:35:34;6.50;;;1.60;;
41837;SDS011;27511;52.042;5.178;2024-03-23T05:38:00;5.95;;;1.48;;
41837;SDS011;27511;52.042;5.178;2024-03-23T05:40:26;11.05;;;1.85;;
41837;SDS011;27511;52.042;5.178;2024-03-23T05:42:52;5.32;;;1.70;;
41837;SDS011;27511;52.042;5.178;2024-03-23T05:45:18;10.05;;;1.50;;
41837;SDS011;27511;52.042;5.178;2024-03-23T05:47:44;6.30;;;1.58;;
41837;SDS011;27511;52.042;5.178;2024-03-23T05:50:10;5.13;;;1.63;;
41837;SDS011;27511;52.042;5.178;2024-03-23T05:52:37;6.45;;;1.70;;
41837;SDS011;27511;52.042;5.178;2024-03-23T05:55:08;7.07;;;1.95;;
41837;SDS011;27511;52.042;5.178;2024-03-23T05:57:34;8.35;;;1.40;;
41837;SDS011;27511;52.042;5.178;2024-03-23T05:59:59;5.78;;;1.20;;
41837;SDS011;27511;52.042;5.178;2024-03-23T06:02:25;6.07;;;1.58;;
41837;SDS011;27511;52.042;5.178;2024-03-23T06:04:50;5.15;;;2.13;;
41837;SDS011;27511;52.042;5.178;2024-03-23T06:07:16;9.10;;;1.67;;
41837;SDS011;27511;52.042;5.178;2024-03-23T06:09:42;6.35;;;1.60;;
41837;SDS011;27511;52.042;5.178;2024-03-23T06:12:07;3.78;;;1.33;;
41837;SDS011;27511;52.042;5.178;2024-03-23T06:14:33;4.10;;;1.60;;
41837;SDS011;27511;52.042;5.178;2024-03-23T06:16:59;10.65;;;1.73;;
41837;SDS011;27511;52.042;5.178;2024-03-23T06:19:25;4.43;;;1.15;;
41837;SDS011;27511;52.042;5.178;2024-03-23T06:21:52;5.85;;;1.98;;
41837;SDS011;27511;52.042;5.178;2024-03-23T06:24:23;10.57;;;1.88;;
41837;SDS011;27511;52.042;5.178;2024-03-23T06:26:49;9.32;;;2.13;;
41837;SDS011;27511;52.042;5.178;2024-03-23T06:29:15;11.77;;;2.35;;
41837;SDS011;27511;52.042;5.178;2024-03-23T06:31:40;11.52;;;2.40;;
41837;SDS011;27511;52.042;5.178;2024-03-23T06:34:06;7.60;;;2.03;;
41837;SDS011;27511;52.042;5.178;2024-03-23T06:36:31;4.93;;;1.48;;
41837;SDS011;27511;52.042;5.178;2024-03-23T06:38:57;8.65;;;2.22;;
41837;SDS011;27511;52.042;5.178;2024-03-23T06:41:23;11.18;;;2.50;;
41837;SDS011;27511;52.042;5.178;2024-03-23T06:43:50;12.50;;;2.00;;
41837;SDS011;27511;52.042;5.178;2024-03-23T06:46:15;6.13;;;1.77;;
41837;SDS011;27511;52.042;5.178;2024-03-23T06:48:41;10.27;;;2.20;;
41837;SDS011;27511;52.042;5.178;2024-03-23T06:51:06;8.93;;;1.58;;
41837;SDS011;27511;52.042;5.178;2024-03-23T06:53:39;10.32;;;2.15;;
41837;SDS011;27511;52.042;5.178;2024-03-23T06:56:05;8.98;;;2.78;;
41837;SDS011;27511;52.042;5.178;2024-03-23T06:58:31;5.32;;;2.25;;
41837;SDS011;27511;52.042;5.178;2024-03-23T07:00:57;7.40;;;2.08;;
41837;SDS011;27511;52.042;5.178;2024-03-23T07:03:23;11.85;;;1.63;;
41837;SDS011;27511;52.042;5.178;2024-03-23T07:05:51;3.65;;;1.83;;
41837;SDS011;27511;52.042;5.178;2024-03-23T07:08:16;4.65;;;2.13;;
41837;SDS011;27511;52.042;5.178;2024-03-23T07:10:46;8.98;;;2.60;;
41837;SDS011;27511;52.042;5.178;2024-03-23T07:13:12;12.43;;;2.47;;
41837;SDS011;27511;52.042;5.178;2024-03-23T07:15:37;10.98;;;2.42;;
41837;SDS011;27511;52.042;5.178;2024-03-23T07:18:03;5.93;;;2.53;;
41837;SDS011;27511;52.042;5.178;2024-03-23T07:20:28;12.75;;;2.20;;
41837;SDS011;27511;52.042;5.178;2024-03-23T07:22:56;6.00;;;2.80;;
41837;SDS011;27511;52.042;5.178;2024-03-23T07:25:22;7.75;;;2.00;;
41837;SDS011;27511;52.042;5.178;2024-03-23T07:27:48;7.40;;;2.00;;
41837;SDS011;27511;52.042;5.178;2024-03-23T07:30:14;7.43;;;2.25;;
41837;SDS011;27511;52.042;5.178;2024-03-23T07:32:39;15.05;;;2.83;;
41837;SDS011;27511;52.042;5.178;2024-03-23T07:35:05;7.50;;;2.45;;
41837;SDS011;27511;52.042;5.178;2024-03-23T07:37:30;7.93;;;2.20;;
41837;SDS011;27511;52.042;5.178;2024-03-23T07:39:56;12.32;;;2.60;;
41837;SDS011;27511;52.042;5.178;2024-03-23T07:42:22;14.32;;;2.30;;
41837;SDS011;27511;52.042;5.178;2024-03-23T07:44:48;6.85;;;2.30;;
41837;SDS011;27511;52.042;5.178;2024-03-23T07:47:14;8.43;;;1.95;;
41837;SDS011;27511;52.042;5.178;2024-03-23T07:49:40;8.90;;;1.80;;
41837;SDS011;27511;52.042;5.178;2024-03-23T07:52:05;11.90;;;1.85;;
41837;SDS011;27511;52.042;5.178;2024-03-23T07:54:33;4.68;;;1.55;;
41837;SDS011;27511;52.042;5.178;2024-03-23T07:56:58;9.57;;;1.90;;
41837;SDS011;27511;52.042;5.178;2024-03-23T07:59:24;8.32;;;1.75;;
41837;SDS011;27511;52.042;5.178;2024-03-23T08:01:50;4.93;;;1.80;;
41837;SDS011;27511;52.042;5.178;2024-03-23T08:04:15;4.90;;;1.65;;
41837;SDS011;27511;52.042;5.178;2024-03-23T08:06:41;7.65;;;2.08;;
41837;SDS011;27511;52.042;5.178;2024-03-23T08:09:07;9.90;;;2.50;;
41837;SDS011;27511;52.042;5.178;2024-03-23T08:11:32;7.57;;;2.17;;
41837;SDS011;27511;52.042;5.178;2024-03-23T08:13:59;6.60;;;1.80;;
41837;SDS011;27511;52.042;5.178;2024-03-23T08:16:26;8.32;;;2.08;;
41837;SDS011;27511;52.042;5.178;2024-03-23T08:18:52;5.25;;;2.00;;
41837;SDS011;27511;52.042;5.178;2024-03-23T08:21:18;5.78;;;1.50;;
41837;SDS011;27511;52.042;5.178;2024-03-23T08:23:44;6.65;;;2.00;;
41837;SDS011;27511;52.042;5.178;2024-03-23T08:26:10;9.57;;;1.77;;
41837;SDS011;27511;52.042;5.178;2024-03-23T08:28:37;6.50;;;1.95;;
41837;SDS011;27511;52.042;5.178;2024-03-23T08:31:04;3.80;;;1.00;;
41837;SDS011;27511;52.042;5.178;2024-03-23T08:33:32;10.70;;;2.15;;
41837;SDS011;27511;52.042;5.178;2024-03-23T08:35:58;6.13;;;1.30;;
41837;SDS011;27511;52.042;5.178;2024-03-23T08:38:25;6.72;;;2.20;;
41837;SDS011;27511;52.042;5.178;2024-03-23T08:40:57;11.18;;;1.50;;
41837;SDS011;27511;52.042;5.178;2024-03-23T08:43:29;3.03;;;1.60;;
41837;SDS011;27511;52.042;5.178;2024-03-23T08:46:05;5.65;;;1.60;;
41837;SDS011;27511;52.042;5.178;2024-03-23T08:48:32;9.60;;;1.88;;
41837;SDS011;27511;52.042;5.178;2024-03-23T08:51:06;5.10;;;1.83;;
41837;SDS011;27511;52.042;5.178;2024-03-23T08:53:33;6.33;;;1.13;;
41837;SDS011;27511;52.042;5.178;2024-03-23T08:55:59;8.27;;;2.05;;
41837;SDS011;27511;52.042;5.178;2024-03-23T08:58:26;4.07;;;1.17;;
41837;SDS011;27511;52.042;5.178;2024-03-23T09:00:52;6.28;;;1.52;;
41837;SDS011;27511;52.042;5.178;2024-03-23T09:03:21;6.32;;;1.95;;
41837;SDS011;27511;52.042;5.178;2024-03-23T09:05:47;7.28;;;1.58;;
41837;SDS011;27511;52.042;5.178;2024-03-23T09:08:12;3.78;;;1.33;;
41837;SDS011;27511;52.042;5.178;2024-03-23T09:10:38;3.17;;;1.45;;
41837;SDS011;27511;52.042;5.178;2024-03-23T09:13:04;4.88;;;1.38;;
41837;SDS011;27511;52.042;5.178;2024-03-23T09:15:30;5.65;;;1.48;;
41837;SDS011;27511;52.042;5.178;2024-03-23T09:17:56;4.55;;;1.60;;
41837;SDS011;27511;52.042;5.178;2024-03-23T09:20:23;3.45;;;1.50;;
41837;SDS011;27511;52.042;5.178;2024-03-23T09:22:49;9.10;;;1.85;;
41837;SDS011;27511;52.042;5.178;2024-03-23T09:25:15;6.50;;;1.55;;
41837;SDS011;27511;52.042;5.178;2024-03-23T09:27:40;7.03;;;1.60;;
41837;SDS011;27511;52.042;5.178;2024-03-23T09:30:06;6.25;;;1.20;;
41837;SDS011;27511;52.042;5.178;2024-03-23T09:32:32;11.10;;;1.75;;
41837;SDS011;27511;52.042;5.178;2024-03-23T09:34:57;9.35;;;1.92;;
41837;SDS011;27511;52.042;5.178;2024-03-23T09:37:23;9.02;;;2.00;;
41837;SDS011;27511;52.042;5.178;2024-03-23T09:39:48;7.47;;;1.55;;
41837;SDS011;27511;52.042;5.178;2024-03-23T09:42:14;12.82;;;2.60;;
41837;SDS011;27511;52.042;5.178;2024-03-23T09:44:40;4.30;;;1.55;;
41837;SDS011;27511;52.042;5.178;2024-03-23T09:47:05;8.60;;;2.05;;
41837;SDS011;27511;52.042;5.178;2024-03-23T09:49:32;9.18;;;2.50;;
41837;SDS011;27511;52.042;5.178;2024-03-23T09:52:01;6.53;;;1.85;;
41837;SDS011;27511;52.042;5.178;2024-03-23T09:54:27;5.75;;;1.48;;
41837;SDS011;27511;52.042;5.178;2024-03-23T09:56:53;2.83;;;1.17;;
41837;SDS011;27511;52.042;5.178;2024-03-23T09:59:19;10.57;;;1.65;;
41837;SDS011;27511;52.042;5.178;2024-03-23T10:01:44;5.78;;;1.35;;
41837;SDS011;27511;52.042;5.178;2024-03-23T10:04:10;8.93;;;1.23;;
41837;SDS011;27511;52.042;5.178;2024-03-23T10:06:36;6.60;;;1.35;;
41837;SDS011;27511;52.042;5.178;2024-03-23T10:09:02;5.68;;;1.25;;
41837;SDS011;27511;52.042;5.178;2024-03-23T10:11:42;6.95;;;1.58;;
41837;SDS011;27511;52.042;5.178;2024-03-23T10:14:09;9.23;;;1.42;;
41837;SDS011;27511;52.042;5.178;2024-03-23T10:16:34;5.55;;;0.98;;
41837;SDS011;27511;52.042;5.178;2024-03-23T10:19:00;4.43;;;1.40;;
41837;SDS011;27511;52.042;5.178;2024-03-23T10:21:25;4.53;;;1.67;;
41837;SDS011;27511;52.042;5.178;2024-03-23T10:23:51;9.15;;;1.40;;
41837;SDS011;27511;52.042;5.178;2024-03-23T10:26:20;5.22;;;1.08;;
41837;SDS011;27511;52.042;5.178;2024-03-23T10:28:53;3.45;;;1.42;;
41837;SDS011;27511;52.042;5.178;2024-03-23T10:31:25;6.25;;;1.20;;
41837;SDS011;27511;52.042;5.178;2024-03-23T10:33:51;8.15;;;2.03;;
41837;SDS011;27511;52.042;5.178;2024-03-23T10:36:19;3.67;;;1.10;;
41837;SDS011;27511;52.042;5.178;2024-03-23T10:38:49;7.68;;;1.23;;
41837;SDS011;27511;52.042;5.178;2024-03-23T10:41:16;1.25;;;0.40;;
41837;SDS011;27511;52.042;5.178;2024-03-23T10:43:43;2.45;;;1.00;;
41837;SDS011;27511;52.042;5.178;2024-03-23T10:46:10;4.38;;;1.02;;
41837;SDS011;27511;52.042;5.178;2024-03-23T10:48:36;5.18;;;1.08;;
41837;SDS011;27511;52.042;5.178;2024-03-23T10:51:03;5.43;;;1.58;;
41837;SDS011;27511;52.042;5.178;2024-03-23T10:53:29;3.15;;;1.05;;
41837;SDS011;27511;52.042;5.178;2024-03-23T10:55:58;3.03;;;0.98;;
41837;SDS011;27511;52.042;5.178;2024-03-23T10:58:31;7.82;;;1.60;;
41837;SDS011;27511;52.042;5.178;2024-03-23T11:01:02;7.65;;;1.45;;
41837;SDS011;27511;52.042;5.178;2024-03-23T11:03:35;5.40;;;1.30;;
41837;SDS011;27511;52.042;5.178;2024-03-23T11:06:02;5.10;;;1.20;;
41837;SDS011;27511;52.042;5.178;2024-03-23T11:13:44;2.75;;;1.13;;
41837;SDS011;27511;52.042;5.178;2024-03-23T11:16:23;9.98;;;1.52;;
41837;SDS011;27511;52.042;5.178;2024-03-23T11:18:50;6.97;;;1.20;;
41837;SDS011;27511;52.042;5.178;2024-03-23T11:24:17;6.43;;;1.27;;
41837;SDS011;27511;52.042;5.178;2024-03-23T11:26:43;8.07;;;1.63;;
41837;SDS011;27511;52.042;5.178;2024-03-23T11:29:14;4.00;;;1.05;;
41837;SDS011;27511;52.042;5.178;2024-03-23T11:34:17;5.65;;;1.10;;
41837;SDS011;27511;52.042;5.178;2024-03-23T11:36:46;6.25;;;2.45;;
41837;SDS011;27511;52.042;5.178;2024-03-23T11:39:16;5.40;;;1.00;;
41837;SDS011;27511;52.042;5.178;2024-03-23T11:41:52;8.57;;;1.75;;
41837;SDS011;27511;52.042;5.178;2024-03-23T11:44:23;5.95;;;1.85;;
41837;SDS011;27511;52.042;5.178;2024-03-23T11:46:53;8.43;;;1.73;;
41837;SDS011;27511;52.042;5.178;2024-03-23T11:49:32;7.80;;;1.35;;
41837;SDS011;27511;52.042;5.178;2024-03-23T11:51:57;8.07;;;1.67;;
41837;SDS011;27511;52.042;5.178;2024-03-23T11:54:24;6.97;;;1.73;;
41837;SDS011;27511;52.042;5.178;2024-03-23T11:57:00;4.70;;;1.35;;
41837;SDS011;27511;52.042;5.178;2024-03-23T12:02:09;7.57;;;1.40;;
41837;SDS011;27511;52.042;5.178;2024-03-23T12:04:36;5.40;;;1.48;;
41837;SDS011;27511;52.042;5.178;2024-03-23T12:07:21;8.27;;;1.73;;
41837;SDS011;27511;52.042;5.178;2024-03-23T12:09:47;4.03;;;1.00;;
41837;SDS011;27511;52.042;5.178;2024-03-23T12:12:28;7.22;;;1.48;;
41837;SDS011;27511;52.042;5.178;2024-03-23T12:15:01;8.88;;;1.50;;
41837;SDS011;27511;52.042;5.178;2024-03-23T12:19:54;5.15;;;1.30;;
41837;SDS011;27511;52.042;5.178;2024-03-23T12:22:23;6.88;;;1.35;;
41837;SDS011;27511;52.042;5.178;2024-03-23T12:24:49;7.72;;;1.63;;
41837;SDS011;27511;52.042;5.178;2024-03-23T12:27:15;6.78;;;1.27;;
41837;SDS011;27511;52.042;5.178;2024-03-23T12:29:40;4.35;;;1.58;;
41837;SDS011;27511;52.042;5.178;2024-03-23T12:32:08;7.78;;;1.65;;
41837;SDS011;27511;52.042;5.178;2024-03-23T12:34:34;6.82;;;1.25;;
41837;SDS011;27511;52.042;5.178;2024-03-23T12:37:00;7.47;;;1.08;;
41837;SDS011;27511;52.042;5.178;2024-03-23T12:39:25;2.40;;;1.00;;
41837;SDS011;27511;52.042;5.178;2024-03-23T12:41:52;4.97;;;1.00;;
41837;SDS011;27511;52.042;5.178;2024-03-23T12:44:18;4.35;;;0.95;;
41837;SDS011;27511;52.042;5.178;2024-03-23T12:46:44;1.42;;;1.17;;
41837;SDS011;27511;52.042;5.178;2024-03-23T12:49:10;2.65;;;0.95;;
41837;SDS011;27511;52.042;5.178;2024-03-23T12:51:36;2.70;;;1.45;;
41837;SDS011;27511;52.042;5.178;2024-03-23T12:54:02;5.65;;;1.10;;
41837;SDS011;27511;52.042;5.178;2024-03-23T12:56:28;7.95;;;1.02;;
41837;SDS011;27511;52.042;5.178;2024-03-23T12:58:54;6.38;;;0.90;;
41837;SDS011;27511;52.042;5.178;2024-03-23T13:01:22;6.32;;;1.48;;
41837;SDS011;27511;52.042;5.178;2024-03-23T13:03:48;5.45;;;1.27;;
41837;SDS011;27511;52.042;5.178;2024-03-23T13:06:15;5.68;;;1.15;;
41837;SDS011;27511;52.042;5.178;2024-03-23T13:08:41;6.15;;;0.90;;
41837;SDS011;27511;52.042;5.178;2024-03-23T13:11:09;3.50;;;0.88;;
41837;SDS011;27511;52.042;5.178;2024-03-23T13:13:35;1.08;;;0.60;;
41837;SDS011;27511;52.042;5.178;2024-03-23T13:16:01;1.13;;;0.50;;
41837;SDS011;27511;52.042;5.178;2024-03-23T13:18:28;4.32;;;0.75;;
41837;SDS011;27511;52.042;5.178;2024-03-23T13:20:54;3.85;;;1.02;;
41837;SDS011;27511;52.042;5.178;2024-03-23T13:23:20;4.65;;;0.80;;
41837;SDS011;27511;52.042;5.178;2024-03-23T13:25:52;4.10;;;1.10;;
41837;SDS011;27511;52.042;5.178;2024-03-23T13:28:20;6.82;;;0.80;;
41837;SDS011;27511;52.042;5.178;2024-03-23T13:30:52;4.25;;;1.00;;
41837;SDS011;27511;52.042;5.178;2024-03-23T13:33:18;4.15;;;0.70;;
41837;SDS011;27511;52.042;5.178;2024-03-23T13:35:51;3.30;;;0.88;;
41837;SDS011;27511;52.042;5.178;2024-03-23T13:38:17;4.78;;;1.05;;
41837;SDS011;27511;52.042;5.178;2024-03-23T13:40:50;14.43;;;0.93;;
41837;SDS011;27511;52.042;5.178;2024-03-23T13:43:20;5.88;;;0.60;;
41837;SDS011;27511;52.042;5.178;2024-03-23T13:45:49;1.90;;;0.50;;
41837;SDS011;27511;52.042;5.178;2024-03-23T13:48:22;1.50;;;0.70;;
41837;SDS011;27511;52.042;5.178;2024-03-23T13:50:58;1.70;;;0.77;;
41837;SDS011;27511;52.042;5.178;2024-03-23T13:53:27;7.97;;;1.05;;
41837;SDS011;27511;52.042;5.178;2024-03-23T13:55:53;4.07;;;0.95;;
41837;SDS011;27511;52.042;5.178;2024-03-23T13:58:19;6.30;;;1.15;;
41837;SDS011;27511;52.042;5.178;2024-03-23T14:00:45;7.90;;;1.42;;
41837;SDS011;27511;52.042;5.178;2024-03-23T14:03:11;8.18;;;1.30;;
41837;SDS011;27511;52.042;5.178;2024-03-23T14:05:37;5.55;;;1.33;;
41837;SDS011;27511;52.042;5.178;2024-03-23T14:08:07;5.63;;;1.38;;
41837;SDS011;27511;52.042;5.178;2024-03-23T14:10:33;7.93;;;1.23;;
41837;SDS011;27511;52.042;5.178;2024-03-23T14:13:00;1.70;;;0.65;;
41837;SDS011;27511;52.042;5.178;2024-03-23T14:15:26;7.70;;;1.30;;
41837;SDS011;27511;52.042;5.178;2024-03-23T14:17:52;2.40;;;0.85;;
41837;SDS011;27511;52.042;5.178;2024-03-23T14:20:19;5.13;;;1.00;;
41837;SDS011;27511;52.042;5.178;2024-03-23T14:22:45;3.95;;;1.05;;
41837;SDS011;27511;52.042;5.178;2024-03-23T14:25:11;5.75;;;1.13;;
41837;SDS011;27511;52.042;5.178;2024-03-23T14:27:36;7.10;;;0.80;;
41837;SDS011;27511;52.042;5.178;2024-03-23T14:30:03;4.78;;;0.98;;
41837;SDS011;27511;52.042;5.178;2024-03-23T14:32:30;6.00;;;1.08;;
41837;SDS011;27511;52.042;5.178;2024-03-23T14:34:59;7.38;;;1.25;;
41837;SDS011;27511;52.042;5.178;2024-03-23T14:37:28;6.15;;;1.08;;
41837;SDS011;27511;52.042;5.178;2024-03-23T14:39:57;15.52;;;1.35;;
41837;SDS011;27511;52.042;5.178;2024-03-23T14:42:23;2.67;;;0.95;;
41837;SDS011;27511;52.042;5.178;2024-03-23T14:44:51;6.22;;;1.13;;
41837;SDS011;27511;52.042;5.178;2024-03-23T14:47:18;5.60;;;1.13;;
41837;SDS011;27511;52.042;5.178;2024-03-23T14:49:44;4.95;;;0.70;;
41837;SDS011;27511;52.042;5.178;2024-03-23T14:52:15;3.60;;;0.70;;
41837;SDS011;27511;52.042;5.178;2024-03-23T14:54:43;0.98;;;0.45;;
41837;SDS011;27511;52.042;5.178;2024-03-23T14:57:09;1.50;;;0.50;;
41837;SDS011;27511;52.042;5.178;2024-03-23T14:59:35;1.52;;;0.60;;
41837;SDS011;27511;52.042;5.178;2024-03-23T15:02:03;7.63;;;1.02;;
41837;SDS011;27511;52.042;5.178;2024-03-23T15:04:29;6.32;;;0.70;;
41837;SDS011;27511;52.042;5.178;2024-03-23T15:06:54;2.58;;;0.65;;
41837;SDS011;27511;52.042;5.178;2024-03-23T15:09:20;2.22;;;0.70;;
41837;SDS011;27511;52.042;5.178;2024-03-23T15:11:45;2.17;;;0.50;;
41837;SDS011;27511;52.042;5.178;2024-03-23T15:14:11;5.35;;;0.98;;
41837;SDS011;27511;52.042;5.178;2024-03-23T15:16:37;2.67;;;0.50;;
41837;SDS011;27511;52.042;5.178;2024-03-23T15:19:02;3.50;;;1.00;;
41837;SDS011;27511;52.042;5.178;2024-03-23T15:21:31;4.03;;;0.90;;
41837;SDS011;27511;52.042;5.178;2024-03-23T15:23:57;4.78;;;1.00;;
41837;SDS011;27511;52.042;5.178;2024-03-23T15:26:22;4.88;;;0.82;;
41837;SDS011;27511;52.042;5.178;2024-03-23T15:28:48;6.93;;;0.88;;
41837;SDS011;27511;52.042;5.178;2024-03-23T15:31:23;4.43;;;0.85;;
41837;SDS011;27511;52.042;5.178;2024-03-23T15:33:49;5.93;;;1.20;;
41837;SDS011;27511;52.042;5.178;2024-03-23T15:36:14;1.60;;;0.85;;
41837;SDS011;27511;52.042;5.178;2024-03-23T15:38:40;5.80;;;1.85;;
41837;SDS011;27511;52.042;5.178;2024-03-23T15:41:06;2.83;;;1.10;;
41837;SDS011;27511;52.042;5.178;2024-03-23T15:43:32;3.85;;;1.20;;
41837;SDS011;27511;52.042;5.178;2024-03-23T15:45:59;7.63;;;1.38;;
41837;SDS011;27511;52.042;5.178;2024-03-23T15:48:25;2.63;;;1.40;;
41837;SDS011;27511;52.042;5.178;2024-03-23T15:50:52;4.57;;;0.98;;